sensor_id;sensor_type;location;lat;lon;timestamp;temperature;humidity
5775;DHT22;2913;51.120;6.772;2024-02-26T00:00:04;7.80;99.90
5775;DHT22;2913;51.120;6.772;2024-02-26T00:02:37;7.70;99.90
5775;DHT22;2913;51.120;6.772;2024-02-26T00:05:07;7.80;99.90
5775;DHT22;2913;51.120;6.772;2024-02-26T00:07:33;7.80;99.90
5775;DHT22;2913;51.120;6.772;2024-02-26T00:10:01;7.70;99.90
5775;DHT22;2913;51.120;6.772;2024-02-26T00:12:30;7.80;99.90
5775;DHT22;2913;51.120;6.772;2024-02-26T00:14:58;7.80;99.90
5775;DHT22;2913;51.120;6.772;2024-02-26T00:17:24;7.70;99.90
5775;DHT22;2913;51.120;6.772;2024-02-26T00:19:50;7.80;99.90
5775;DHT22;2913;51.120;6.772;2024-02-26T00:22:18;7.80;99.90
5775;DHT22;2913;51.120;6.772;2024-02-26T00:24:43;7.80;99.90
5775;DHT22;2913;51.120;6.772;2024-02-26T00:27:09;7.90;99.90
5775;DHT22;2913;51.120;6.772;2024-02-26T00:29:35;8.00;99.90
5775;DHT22;2913;51.120;6.772;2024-02-26T00:32:02;7.90;99.90
5775;DHT22;2913;51.120;6.772;2024-02-26T00:34:29;7.90;99.90
5775;DHT22;2913;51.120;6.772;2024-02-26T00:36:57;7.90;99.90
5775;DHT22;2913;51.120;6.772;2024-02-26T00:39:22;7.80;99.90
5775;DHT22;2913;51.120;6.772;2024-02-26T00:41:48;7.80;99.90
5775;DHT22;2913;51.120;6.772;2024-02-26T00:44:13;7.70;99.90
5775;DHT22;2913;51.120;6.772;2024-02-26T00:46:39;7.60;99.90
5775;DHT22;2913;51.120;6.772;2024-02-26T00:49:07;7.60;99.90
5775;DHT22;2913;51.120;6.772;2024-02-26T00:51:33;7.60;99.90
5775;DHT22;2913;51.120;6.772;2024-02-26T00:53:58;7.60;99.90
5775;DHT22;2913;51.120;6.772;2024-02-26T00:56:24;7.60;99.90
5775;DHT22;2913;51.120;6.772;2024-02-26T00:58:54;7.50;99.90
5775;DHT22;2913;51.120;6.772;2024-02-26T01:01:20;7.40;99.90
5775;DHT22;2913;51.120;6.772;2024-02-26T01:03:48;7.40;99.90
5775;DHT22;2913;51.120;6.772;2024-02-26T01:06:13;7.40;99.90
5775;DHT22;2913;51.120;6.772;2024-02-26T01:08:39;7.40;99.90
5775;DHT22;2913;51.120;6.772;2024-02-26T01:11:05;7.40;99.90
5775;DHT22;2913;51.120;6.772;2024-02-26T01:13:31;7.40;99.90
5775;DHT22;2913;51.120;6.772;2024-02-26T01:15:58;7.40;99.90
5775;DHT22;2913;51.120;6.772;2024-02-26T01:18:29;7.40;99.90
5775;DHT22;2913;51.120;6.772;2024-02-26T01:20:55;7.50;99.90
5775;DHT22;2913;51.120;6.772;2024-02-26T01:23:21;7.50;99.90
5775;DHT22;2913;51.120;6.772;2024-02-26T01:25:46;7.50;99.90
5775;DHT22;2913;51.120;6.772;2024-02-26T01:30:40;7.50;99.90
5775;DHT22;2913;51.120;6.772;2024-02-26T01:33:07;7.60;99.90
5775;DHT22;2913;51.120;6.772;2024-02-26T01:35:32;7.50;99.90
5775;DHT22;2913;51.120;6.772;2024-02-26T01:37:58;7.40;99.90
5775;DHT22;2913;51.120;6.772;2024-02-26T01:40:27;7.40;99.90
5775;DHT22;2913;51.120;6.772;2024-02-26T01:42:55;7.40;99.90
5775;DHT22;2913;51.120;6.772;2024-02-26T01:45:20;7.40;99.90
5775;DHT22;2913;51.120;6.772;2024-02-26T01:47:52;7.40;99.90
5775;DHT22;2913;51.120;6.772;2024-02-26T01:50:21;7.30;99.90
5775;DHT22;2913;51.120;6.772;2024-02-26T01:52:50;7.30;99.90
5775;DHT22;2913;51.120;6.772;2024-02-26T01:55:20;7.30;99.90
5775;DHT22;2913;51.120;6.772;2024-02-26T01:57:48;7.30;99.90
5775;DHT22;2913;51.120;6.772;2024-02-26T02:00:14;7.30;99.90
5775;DHT22;2913;51.120;6.772;2024-02-26T02:02:44;7.30;99.90
5775;DHT22;2913;51.120;6.772;2024-02-26T02:05:15;7.20;99.90
5775;DHT22;2913;51.120;6.772;2024-02-26T02:07:44;7.20;99.90
5775;DHT22;2913;51.120;6.772;2024-02-26T02:10:10;7.30;99.90
5775;DHT22;2913;51.120;6.772;2024-02-26T02:12:36;7.20;99.90
5775;DHT22;2913;51.120;6.772;2024-02-26T02:15:08;7.30;99.90
5775;DHT22;2913;51.120;6.772;2024-02-26T02:17:34;7.20;99.90
5775;DHT22;2913;51.120;6.772;2024-02-26T02:19:59;7.10;99.90
5775;DHT22;2913;51.120;6.772;2024-02-26T02:22:25;7.10;99.90
5775;DHT22;2913;51.120;6.772;2024-02-26T02:24:53;7.10;99.90
5775;DHT22;2913;51.120;6.772;2024-02-26T02:27:22;7.20;99.90
5775;DHT22;2913;51.120;6.772;2024-02-26T02:29:48;7.10;99.90
5775;DHT22;2913;51.120;6.772;2024-02-26T02:32:14;7.10;99.90
5775;DHT22;2913;51.120;6.772;2024-02-26T02:34:41;7.10;99.90
5775;DHT22;2913;51.120;6.772;2024-02-26T02:37:09;7.10;99.90
5775;DHT22;2913;51.120;6.772;2024-02-26T02:39:35;7.00;99.90
5775;DHT22;2913;51.120;6.772;2024-02-26T02:42:00;7.10;99.90
5775;DHT22;2913;51.120;6.772;2024-02-26T02:44:26;7.00;99.90
5775;DHT22;2913;51.120;6.772;2024-02-26T02:46:52;7.00;99.90
5775;DHT22;2913;51.120;6.772;2024-02-26T02:49:18;7.00;99.90
5775;DHT22;2913;51.120;6.772;2024-02-26T02:51:49;7.10;99.90
5775;DHT22;2913;51.120;6.772;2024-02-26T02:54:14;7.00;99.90
5775;DHT22;2913;51.120;6.772;2024-02-26T02:56:40;7.00;99.90
5775;DHT22;2913;51.120;6.772;2024-02-26T02:59:08;7.00;99.90
5775;DHT22;2913;51.120;6.772;2024-02-26T03:01:36;7.00;99.90
5775;DHT22;2913;51.120;6.772;2024-02-26T03:04:01;6.90;99.90
5775;DHT22;2913;51.120;6.772;2024-02-26T03:06:29;6.90;99.90
5775;DHT22;2913;51.120;6.772;2024-02-26T03:08:57;6.90;99.90
5775;DHT22;2913;51.120;6.772;2024-02-26T03:11:26;6.90;99.90
5775;DHT22;2913;51.120;6.772;2024-02-26T03:13:52;6.90;99.90
5775;DHT22;2913;51.120;6.772;2024-02-26T03:16:17;6.90;99.90
5775;DHT22;2913;51.120;6.772;2024-02-26T03:18:44;6.90;99.90
5775;DHT22;2913;51.120;6.772;2024-02-26T03:21:09;6.90;99.90
5775;DHT22;2913;51.120;6.772;2024-02-26T03:23:35;6.90;99.90
5775;DHT22;2913;51.120;6.772;2024-02-26T03:26:05;6.90;99.90
5775;DHT22;2913;51.120;6.772;2024-02-26T03:28:31;6.90;99.90
5775;DHT22;2913;51.120;6.772;2024-02-26T03:30:59;6.90;99.90
5775;DHT22;2913;51.120;6.772;2024-02-26T03:33:25;6.90;99.90
5775;DHT22;2913;51.120;6.772;2024-02-26T03:35:50;7.00;99.90
5775;DHT22;2913;51.120;6.772;2024-02-26T03:40:42;7.00;99.90
5775;DHT22;2913;51.120;6.772;2024-02-26T03:43:10;7.00;99.90
5775;DHT22;2913;51.120;6.772;2024-02-26T03:45:38;7.00;99.90
5775;DHT22;2913;51.120;6.772;2024-02-26T03:48:06;7.00;99.90
5775;DHT22;2913;51.120;6.772;2024-02-26T03:50:35;6.90;99.90
5775;DHT22;2913;51.120;6.772;2024-02-26T03:53:00;6.90;99.90
5775;DHT22;2913;51.120;6.772;2024-02-26T03:55:28;6.90;99.90
5775;DHT22;2913;51.120;6.772;2024-02-26T03:57:56;6.90;99.90
5775;DHT22;2913;51.120;6.772;2024-02-26T04:00:22;6.80;99.90
5775;DHT22;2913;51.120;6.772;2024-02-26T04:02:47;6.90;99.90
5775;DHT22;2913;51.120;6.772;2024-02-26T04:05:13;6.80;99.90
5775;DHT22;2913;51.120;6.772;2024-02-26T04:07:42;6.80;99.90
5775;DHT22;2913;51.120;6.772;2024-02-26T04:10:11;6.80;99.90
5775;DHT22;2913;51.120;6.772;2024-02-26T04:12:40;6.90;99.90
5775;DHT22;2913;51.120;6.772;2024-02-26T04:15:08;6.90;99.90
5775;DHT22;2913;51.120;6.772;2024-02-26T04:17:39;6.80;99.90
5775;DHT22;2913;51.120;6.772;2024-02-26T04:20:12;6.80;99.90
5775;DHT22;2913;51.120;6.772;2024-02-26T04:22:38;6.80;99.90
5775;DHT22;2913;51.120;6.772;2024-02-26T04:25:08;6.70;99.90
5775;DHT22;2913;51.120;6.772;2024-02-26T04:27:34;6.80;99.90
5775;DHT22;2913;51.120;6.772;2024-02-26T04:29:59;6.70;99.90
5775;DHT22;2913;51.120;6.772;2024-02-26T04:32:25;6.80;99.90
5775;DHT22;2913;51.120;6.772;2024-02-26T04:34:51;6.70;99.90
5775;DHT22;2913;51.120;6.772;2024-02-26T04:37:21;6.80;99.90
5775;DHT22;2913;51.120;6.772;2024-02-26T04:39:47;6.70;99.90
5775;DHT22;2913;51.120;6.772;2024-02-26T04:42:12;6.80;99.90
5775;DHT22;2913;51.120;6.772;2024-02-26T04:44:38;6.70;99.90
5775;DHT22;2913;51.120;6.772;2024-02-26T04:47:03;6.70;99.90
5775;DHT22;2913;51.120;6.772;2024-02-26T04:49:29;6.60;99.90
5775;DHT22;2913;51.120;6.772;2024-02-26T04:51:54;6.70;99.90
5775;DHT22;2913;51.120;6.772;2024-02-26T04:54:21;6.70;99.90
5775;DHT22;2913;51.120;6.772;2024-02-26T04:56:47;6.60;99.90
5775;DHT22;2913;51.120;6.772;2024-02-26T04:59:13;6.60;99.90
5775;DHT22;2913;51.120;6.772;2024-02-26T05:01:39;6.60;99.90
5775;DHT22;2913;51.120;6.772;2024-02-26T05:04:05;6.40;99.90
5775;DHT22;2913;51.120;6.772;2024-02-26T05:06:31;6.60;99.90
5775;DHT22;2913;51.120;6.772;2024-02-26T05:08:58;6.50;99.90
5775;DHT22;2913;51.120;6.772;2024-02-26T05:11:26;6.50;99.90
5775;DHT22;2913;51.120;6.772;2024-02-26T05:13:52;6.60;99.90
5775;DHT22;2913;51.120;6.772;2024-02-26T05:16:20;6.50;99.90
5775;DHT22;2913;51.120;6.772;2024-02-26T05:18:50;6.40;99.90
5775;DHT22;2913;51.120;6.772;2024-02-26T05:21:18;6.60;99.90
5775;DHT22;2913;51.120;6.772;2024-02-26T05:23:46;6.50;99.90
5775;DHT22;2913;51.120;6.772;2024-02-26T05:26:21;6.60;99.90
5775;DHT22;2913;51.120;6.772;2024-02-26T05:28:49;6.50;99.90
5775;DHT22;2913;51.120;6.772;2024-02-26T05:31:16;6.50;99.90
5775;DHT22;2913;51.120;6.772;2024-02-26T05:33:44;6.40;99.90
5775;DHT22;2913;51.120;6.772;2024-02-26T05:36:18;6.40;99.90
5775;DHT22;2913;51.120;6.772;2024-02-26T05:38:44;6.40;99.90
5775;DHT22;2913;51.120;6.772;2024-02-26T05:41:14;6.40;99.90
5775;DHT22;2913;51.120;6.772;2024-02-26T05:43:40;6.40;99.90
5775;DHT22;2913;51.120;6.772;2024-02-26T05:46:06;6.40;99.90
5775;DHT22;2913;51.120;6.772;2024-02-26T05:48:34;6.40;99.90
5775;DHT22;2913;51.120;6.772;2024-02-26T05:50:59;6.20;99.90
5775;DHT22;2913;51.120;6.772;2024-02-26T05:53:28;6.30;99.90
5775;DHT22;2913;51.120;6.772;2024-02-26T05:55:54;6.30;99.90
5775;DHT22;2913;51.120;6.772;2024-02-26T05:58:19;6.20;99.90
5775;DHT22;2913;51.120;6.772;2024-02-26T06:00:47;6.20;99.90
5775;DHT22;2913;51.120;6.772;2024-02-26T06:03:15;6.20;99.90
5775;DHT22;2913;51.120;6.772;2024-02-26T06:05:42;6.20;99.90
5775;DHT22;2913;51.120;6.772;2024-02-26T06:08:07;6.10;99.90
5775;DHT22;2913;51.120;6.772;2024-02-26T06:10:35;6.20;99.90
5775;DHT22;2913;51.120;6.772;2024-02-26T06:13:01;6.10;99.90
5775;DHT22;2913;51.120;6.772;2024-02-26T06:15:26;6.20;99.90
5775;DHT22;2913;51.120;6.772;2024-02-26T06:17:52;6.10;99.90
5775;DHT22;2913;51.120;6.772;2024-02-26T06:20:18;6.10;99.90
5775;DHT22;2913;51.120;6.772;2024-02-26T06:22:43;6.10;99.90
5775;DHT22;2913;51.120;6.772;2024-02-26T06:25:10;6.10;99.90
5775;DHT22;2913;51.120;6.772;2024-02-26T06:27:38;6.00;99.90
5775;DHT22;2913;51.120;6.772;2024-02-26T06:30:06;6.10;99.90
5775;DHT22;2913;51.120;6.772;2024-02-26T06:32:32;6.10;99.90
5775;DHT22;2913;51.120;6.772;2024-02-26T06:34:58;6.00;99.90
5775;DHT22;2913;51.120;6.772;2024-02-26T06:37:26;6.10;99.90
5775;DHT22;2913;51.120;6.772;2024-02-26T06:39:54;6.00;99.90
5775;DHT22;2913;51.120;6.772;2024-02-26T06:42:22;6.10;99.90
5775;DHT22;2913;51.120;6.772;2024-02-26T06:44:48;6.10;99.90
5775;DHT22;2913;51.120;6.772;2024-02-26T06:49:42;6.10;99.90
5775;DHT22;2913;51.120;6.772;2024-02-26T06:52:10;6.10;99.90
5775;DHT22;2913;51.120;6.772;2024-02-26T06:57:04;6.10;99.90
5775;DHT22;2913;51.120;6.772;2024-02-26T07:01:57;6.10;99.90
5775;DHT22;2913;51.120;6.772;2024-02-26T07:04:26;6.00;99.90
5775;DHT22;2913;51.120;6.772;2024-02-26T07:06:51;6.00;99.90
5775;DHT22;2913;51.120;6.772;2024-02-26T07:09:19;6.00;99.90
5775;DHT22;2913;51.120;6.772;2024-02-26T07:14:15;5.90;99.90
5775;DHT22;2913;51.120;6.772;2024-02-26T07:16:43;6.00;99.90
5775;DHT22;2913;51.120;6.772;2024-02-26T07:19:09;6.00;99.90
5775;DHT22;2913;51.120;6.772;2024-02-26T07:21:34;5.90;99.90
5775;DHT22;2913;51.120;6.772;2024-02-26T07:24:00;5.90;99.90
5775;DHT22;2913;51.120;6.772;2024-02-26T07:26:26;6.00;99.90
5775;DHT22;2913;51.120;6.772;2024-02-26T07:31:25;6.00;99.90
5775;DHT22;2913;51.120;6.772;2024-02-26T07:33:51;5.90;99.90
5775;DHT22;2913;51.120;6.772;2024-02-26T07:36:17;6.00;99.90
5775;DHT22;2913;51.120;6.772;2024-02-26T07:38:42;5.90;99.90
5775;DHT22;2913;51.120;6.772;2024-02-26T07:41:08;6.00;99.90
5775;DHT22;2913;51.120;6.772;2024-02-26T07:43:36;5.90;99.90
5775;DHT22;2913;51.120;6.772;2024-02-26T07:46:05;5.90;99.90
5775;DHT22;2913;51.120;6.772;2024-02-26T07:48:30;6.10;99.90
5775;DHT22;2913;51.120;6.772;2024-02-26T07:50:56;6.00;99.90
5775;DHT22;2913;51.120;6.772;2024-02-26T07:53:21;6.10;99.90
5775;DHT22;2913;51.120;6.772;2024-02-26T07:58:13;6.00;99.90
5775;DHT22;2913;51.120;6.772;2024-02-26T08:00:41;6.00;99.90
5775;DHT22;2913;51.120;6.772;2024-02-26T08:03:07;6.10;99.90
5775;DHT22;2913;51.120;6.772;2024-02-26T08:07:59;6.10;99.90
5775;DHT22;2913;51.120;6.772;2024-02-26T08:12:50;6.10;99.90
5775;DHT22;2913;51.120;6.772;2024-02-26T08:15:16;6.10;99.90
5775;DHT22;2913;51.120;6.772;2024-02-26T08:17:44;6.20;99.90
5775;DHT22;2913;51.120;6.772;2024-02-26T08:20:10;6.10;99.90
5775;DHT22;2913;51.120;6.772;2024-02-26T08:22:38;6.10;99.90
5775;DHT22;2913;51.120;6.772;2024-02-26T08:25:06;6.20;99.90
5775;DHT22;2913;51.120;6.772;2024-02-26T08:27:34;6.20;99.90
5775;DHT22;2913;51.120;6.772;2024-02-26T08:30:00;6.20;99.90
5775;DHT22;2913;51.120;6.772;2024-02-26T08:32:25;6.20;99.90
5775;DHT22;2913;51.120;6.772;2024-02-26T08:34:53;6.30;99.90
5775;DHT22;2913;51.120;6.772;2024-02-26T08:37:19;6.30;99.90
5775;DHT22;2913;51.120;6.772;2024-02-26T08:39:47;6.30;99.90
5775;DHT22;2913;51.120;6.772;2024-02-26T08:42:12;6.40;99.90
5775;DHT22;2913;51.120;6.772;2024-02-26T08:44:41;6.40;99.90
5775;DHT22;2913;51.120;6.772;2024-02-26T08:47:08;6.40;99.90
5775;DHT22;2913;51.120;6.772;2024-02-26T08:49:36;6.40;99.90
5775;DHT22;2913;51.120;6.772;2024-02-26T08:52:04;6.40;99.90
5775;DHT22;2913;51.120;6.772;2024-02-26T08:54:30;6.30;99.90
5775;DHT22;2913;51.120;6.772;2024-02-26T08:56:56;6.30;99.90
5775;DHT22;2913;51.120;6.772;2024-02-26T09:01:50;6.30;99.90
5775;DHT22;2913;51.120;6.772;2024-02-26T09:04:16;6.30;99.90
5775;DHT22;2913;51.120;6.772;2024-02-26T09:06:41;6.30;99.90
5775;DHT22;2913;51.120;6.772;2024-02-26T09:11:33;6.40;99.90
5775;DHT22;2913;51.120;6.772;2024-02-26T09:13:59;6.40;99.90
5775;DHT22;2913;51.120;6.772;2024-02-26T09:16:24;6.40;99.90
5775;DHT22;2913;51.120;6.772;2024-02-26T09:18:52;6.40;99.90
5775;DHT22;2913;51.120;6.772;2024-02-26T09:23:51;6.40;99.90
5775;DHT22;2913;51.120;6.772;2024-02-26T09:26:19;6.50;99.90
5775;DHT22;2913;51.120;6.772;2024-02-26T09:28:49;6.50;99.90
5775;DHT22;2913;51.120;6.772;2024-02-26T09:31:17;6.50;99.90
5775;DHT22;2913;51.120;6.772;2024-02-26T09:33:46;6.50;99.90
5775;DHT22;2913;51.120;6.772;2024-02-26T09:36:11;6.60;99.90
5775;DHT22;2913;51.120;6.772;2024-02-26T09:38:39;6.60;99.90
5775;DHT22;2913;51.120;6.772;2024-02-26T09:41:05;6.50;99.90
5775;DHT22;2913;51.120;6.772;2024-02-26T09:43:37;6.70;99.90
5775;DHT22;2913;51.120;6.772;2024-02-26T09:46:05;6.70;99.90
5775;DHT22;2913;51.120;6.772;2024-02-26T09:48:32;6.70;99.90
5775;DHT22;2913;51.120;6.772;2024-02-26T09:51:07;6.70;99.90
5775;DHT22;2913;51.120;6.772;2024-02-26T09:53:32;6.70;99.90
5775;DHT22;2913;51.120;6.772;2024-02-26T09:58:29;6.70;99.90
5775;DHT22;2913;51.120;6.772;2024-02-26T10:01:00;6.80;99.90
5775;DHT22;2913;51.120;6.772;2024-02-26T10:03:41;6.60;99.90
5775;DHT22;2913;51.120;6.772;2024-02-26T10:06:08;6.80;99.90
5775;DHT22;2913;51.120;6.772;2024-02-26T10:08:34;6.70;99.90
5775;DHT22;2913;51.120;6.772;2024-02-26T10:11:00;6.80;99.90
5775;DHT22;2913;51.120;6.772;2024-02-26T10:13:26;6.80;99.90
5775;DHT22;2913;51.120;6.772;2024-02-26T10:18:18;6.90;99.90
5775;DHT22;2913;51.120;6.772;2024-02-26T10:20:59;6.90;99.90
5775;DHT22;2913;51.120;6.772;2024-02-26T10:23:27;6.90;99.90
5775;DHT22;2913;51.120;6.772;2024-02-26T10:25:54;7.00;99.90
5775;DHT22;2913;51.120;6.772;2024-02-26T10:28:20;7.00;99.90
5775;DHT22;2913;51.120;6.772;2024-02-26T10:30:46;7.00;99.90
5775;DHT22;2913;51.120;6.772;2024-02-26T10:33:14;7.00;99.90
5775;DHT22;2913;51.120;6.772;2024-02-26T10:35:45;6.90;99.90
5775;DHT22;2913;51.120;6.772;2024-02-26T10:38:10;7.00;99.90
5775;DHT22;2913;51.120;6.772;2024-02-26T10:40:37;6.90;99.90
5775;DHT22;2913;51.120;6.772;2024-02-26T10:43:05;6.90;99.90
5775;DHT22;2913;51.120;6.772;2024-02-26T10:45:31;6.90;99.90
5775;DHT22;2913;51.120;6.772;2024-02-26T10:47:57;6.80;99.90
5775;DHT22;2913;51.120;6.772;2024-02-26T10:50:24;6.90;99.90
5775;DHT22;2913;51.120;6.772;2024-02-26T10:52:54;6.90;99.90
5775;DHT22;2913;51.120;6.772;2024-02-26T10:55:23;7.00;99.90
5775;DHT22;2913;51.120;6.772;2024-02-26T10:57:54;7.00;99.90
5775;DHT22;2913;51.120;6.772;2024-02-26T11:00:21;7.10;99.90
5775;DHT22;2913;51.120;6.772;2024-02-26T11:02:53;7.10;99.90
5775;DHT22;2913;51.120;6.772;2024-02-26T11:05:19;7.20;99.90
5775;DHT22;2913;51.120;6.772;2024-02-26T11:07:45;7.20;99.90
5775;DHT22;2913;51.120;6.772;2024-02-26T11:10:15;7.20;99.90
5775;DHT22;2913;51.120;6.772;2024-02-26T11:12:42;7.20;99.90
5775;DHT22;2913;51.120;6.772;2024-02-26T11:15:10;7.30;99.90
5775;DHT22;2913;51.120;6.772;2024-02-26T11:17:38;7.30;99.90
5775;DHT22;2913;51.120;6.772;2024-02-26T11:20:10;7.30;99.90
5775;DHT22;2913;51.120;6.772;2024-02-26T11:22:36;7.30;99.90
5775;DHT22;2913;51.120;6.772;2024-02-26T11:25:03;7.30;99.90
5775;DHT22;2913;51.120;6.772;2024-02-26T11:27:42;7.30;99.90
5775;DHT22;2913;51.120;6.772;2024-02-26T11:30:12;7.40;99.90
5775;DHT22;2913;51.120;6.772;2024-02-26T11:32:41;7.40;99.90
5775;DHT22;2913;51.120;6.772;2024-02-26T11:35:09;7.40;99.90
5775;DHT22;2913;51.120;6.772;2024-02-26T11:37:35;7.40;99.90
5775;DHT22;2913;51.120;6.772;2024-02-26T11:40:01;7.40;99.90
5775;DHT22;2913;51.120;6.772;2024-02-26T11:42:27;7.40;99.90
5775;DHT22;2913;51.120;6.772;2024-02-26T11:44:55;7.40;99.90
5775;DHT22;2913;51.120;6.772;2024-02-26T11:47:27;7.40;99.90
5775;DHT22;2913;51.120;6.772;2024-02-26T11:52:21;7.40;99.90
5775;DHT22;2913;51.120;6.772;2024-02-26T11:57:29;7.40;99.90
5775;DHT22;2913;51.120;6.772;2024-02-26T11:59:56;7.40;99.90
5775;DHT22;2913;51.120;6.772;2024-02-26T12:02:52;7.30;99.90
5775;DHT22;2913;51.120;6.772;2024-02-26T12:05:27;7.40;99.90
5775;DHT22;2913;51.120;6.772;2024-02-26T12:08:03;7.40;99.90
5775;DHT22;2913;51.120;6.772;2024-02-26T12:10:35;7.30;99.90
5775;DHT22;2913;51.120;6.772;2024-02-26T12:13:11;7.30;99.90
5775;DHT22;2913;51.120;6.772;2024-02-26T12:15:54;7.20;99.90
5775;DHT22;2913;51.120;6.772;2024-02-26T12:18:21;7.30;99.90
5775;DHT22;2913;51.120;6.772;2024-02-26T12:21:01;7.20;99.90
5775;DHT22;2913;51.120;6.772;2024-02-26T12:23:31;7.30;99.90
5775;DHT22;2913;51.120;6.772;2024-02-26T12:26:00;7.30;99.90
5775;DHT22;2913;51.120;6.772;2024-02-26T12:28:30;7.30;99.90
5775;DHT22;2913;51.120;6.772;2024-02-26T12:30:55;7.30;99.90
5775;DHT22;2913;51.120;6.772;2024-02-26T12:33:21;7.20;99.90
5775;DHT22;2913;51.120;6.772;2024-02-26T12:35:47;7.10;99.90
5775;DHT22;2913;51.120;6.772;2024-02-26T12:38:15;7.10;99.90
5775;DHT22;2913;51.120;6.772;2024-02-26T12:40:44;7.30;99.90
5775;DHT22;2913;51.120;6.772;2024-02-26T12:43:14;7.20;99.90
5775;DHT22;2913;51.120;6.772;2024-02-26T12:45:43;7.10;99.90
5775;DHT22;2913;51.120;6.772;2024-02-26T12:48:15;7.10;99.90
5775;DHT22;2913;51.120;6.772;2024-02-26T12:50:46;7.10;99.90
5775;DHT22;2913;51.120;6.772;2024-02-26T12:53:12;7.20;99.90
5775;DHT22;2913;51.120;6.772;2024-02-26T12:55:42;7.20;99.90
5775;DHT22;2913;51.120;6.772;2024-02-26T12:58:09;7.10;99.90
5775;DHT22;2913;51.120;6.772;2024-02-26T13:00:39;7.10;99.90
5775;DHT22;2913;51.120;6.772;2024-02-26T13:03:06;7.10;99.90
5775;DHT22;2913;51.120;6.772;2024-02-26T13:05:32;7.20;99.90
5775;DHT22;2913;51.120;6.772;2024-02-26T13:07:58;7.20;99.90
5775;DHT22;2913;51.120;6.772;2024-02-26T13:10:26;7.10;99.90
5775;DHT22;2913;51.120;6.772;2024-02-26T13:12:54;7.10;99.90
5775;DHT22;2913;51.120;6.772;2024-02-26T13:15:24;7.30;99.90
5775;DHT22;2913;51.120;6.772;2024-02-26T13:17:50;7.30;99.90
5775;DHT22;2913;51.120;6.772;2024-02-26T13:20:28;7.30;99.90
5775;DHT22;2913;51.120;6.772;2024-02-26T13:23:13;7.20;99.90
5775;DHT22;2913;51.120;6.772;2024-02-26T13:25:38;7.20;99.90
5775;DHT22;2913;51.120;6.772;2024-02-26T13:28:09;7.30;99.90
5775;DHT22;2913;51.120;6.772;2024-02-26T13:30:56;7.40;99.90
5775;DHT22;2913;51.120;6.772;2024-02-26T13:33:27;7.30;99.90
5775;DHT22;2913;51.120;6.772;2024-02-26T13:35:56;7.30;99.90
5775;DHT22;2913;51.120;6.772;2024-02-26T13:38:22;7.30;99.90
5775;DHT22;2913;51.120;6.772;2024-02-26T13:40:49;7.30;99.90
5775;DHT22;2913;51.120;6.772;2024-02-26T13:43:15;7.30;99.90
5775;DHT22;2913;51.120;6.772;2024-02-26T13:45:43;7.40;99.90
5775;DHT22;2913;51.120;6.772;2024-02-26T13:48:12;7.40;99.90
5775;DHT22;2913;51.120;6.772;2024-02-26T13:50:45;7.30;99.90
5775;DHT22;2913;51.120;6.772;2024-02-26T13:53:12;7.30;99.90
5775;DHT22;2913;51.120;6.772;2024-02-26T13:55:41;7.30;99.90
5775;DHT22;2913;51.120;6.772;2024-02-26T13:58:12;7.30;99.90
5775;DHT22;2913;51.120;6.772;2024-02-26T14:00:39;7.30;99.90
5775;DHT22;2913;51.120;6.772;2024-02-26T14:03:11;7.40;99.90
5775;DHT22;2913;51.120;6.772;2024-02-26T14:05:39;7.30;99.90
5775;DHT22;2913;51.120;6.772;2024-02-26T14:08:09;7.30;99.90
5775;DHT22;2913;51.120;6.772;2024-02-26T14:10:34;7.40;99.90
5775;DHT22;2913;51.120;6.772;2024-02-26T14:13:02;7.40;99.90
5775;DHT22;2913;51.120;6.772;2024-02-26T14:15:30;7.30;99.90
5775;DHT22;2913;51.120;6.772;2024-02-26T14:17:56;7.50;99.90
5775;DHT22;2913;51.120;6.772;2024-02-26T14:20:26;7.50;99.90
5775;DHT22;2913;51.120;6.772;2024-02-26T14:22:52;7.60;99.90
5775;DHT22;2913;51.120;6.772;2024-02-26T14:25:19;7.60;99.90
5775;DHT22;2913;51.120;6.772;2024-02-26T14:27:46;7.60;99.90
5775;DHT22;2913;51.120;6.772;2024-02-26T14:30:14;7.60;99.90
5775;DHT22;2913;51.120;6.772;2024-02-26T14:32:40;7.60;99.90
5775;DHT22;2913;51.120;6.772;2024-02-26T14:35:07;7.60;99.90
5775;DHT22;2913;51.120;6.772;2024-02-26T14:37:38;7.60;99.90
5775;DHT22;2913;51.120;6.772;2024-02-26T14:40:04;7.70;99.90
5775;DHT22;2913;51.120;6.772;2024-02-26T14:42:33;7.80;99.90
5775;DHT22;2913;51.120;6.772;2024-02-26T14:44:59;7.70;99.90
5775;DHT22;2913;51.120;6.772;2024-02-26T14:47:25;7.70;99.90
5775;DHT22;2913;51.120;6.772;2024-02-26T14:49:53;7.70;99.90
5775;DHT22;2913;51.120;6.772;2024-02-26T14:52:22;7.80;99.90
5775;DHT22;2913;51.120;6.772;2024-02-26T14:54:52;7.80;99.90
5775;DHT22;2913;51.120;6.772;2024-02-26T14:57:20;7.80;99.90
5775;DHT22;2913;51.120;6.772;2024-02-26T14:59:48;7.80;99.90
5775;DHT22;2913;51.120;6.772;2024-02-26T15:02:15;7.90;99.90
5775;DHT22;2913;51.120;6.772;2024-02-26T15:04:41;7.90;99.90
5775;DHT22;2913;51.120;6.772;2024-02-26T15:07:10;8.00;99.90
5775;DHT22;2913;51.120;6.772;2024-02-26T15:09:37;8.00;99.90
5775;DHT22;2913;51.120;6.772;2024-02-26T15:12:03;8.00;99.90
5775;DHT22;2913;51.120;6.772;2024-02-26T15:14:32;8.00;99.90
5775;DHT22;2913;51.120;6.772;2024-02-26T15:16:57;8.10;99.90
5775;DHT22;2913;51.120;6.772;2024-02-26T15:19:23;8.00;99.90
5775;DHT22;2913;51.120;6.772;2024-02-26T15:21:49;8.00;99.90
5775;DHT22;2913;51.120;6.772;2024-02-26T15:24:15;8.00;99.90
5775;DHT22;2913;51.120;6.772;2024-02-26T15:26:43;8.00;99.90
5775;DHT22;2913;51.120;6.772;2024-02-26T15:29:11;8.00;99.90
5775;DHT22;2913;51.120;6.772;2024-02-26T15:31:37;8.00;99.90
5775;DHT22;2913;51.120;6.772;2024-02-26T15:34:03;8.00;99.90
5775;DHT22;2913;51.120;6.772;2024-02-26T15:36:29;8.00;99.90
5775;DHT22;2913;51.120;6.772;2024-02-26T15:38:57;8.00;99.90
5775;DHT22;2913;51.120;6.772;2024-02-26T15:41:23;8.00;99.90
5775;DHT22;2913;51.120;6.772;2024-02-26T15:43:59;7.90;99.90
5775;DHT22;2913;51.120;6.772;2024-02-26T15:46:26;7.90;99.90
5775;DHT22;2913;51.120;6.772;2024-02-26T15:48:52;7.90;99.90
5775;DHT22;2913;51.120;6.772;2024-02-26T15:51:19;8.00;99.90
5775;DHT22;2913;51.120;6.772;2024-02-26T15:53:49;7.80;99.90
5775;DHT22;2913;51.120;6.772;2024-02-26T15:56:21;7.80;99.90
5775;DHT22;2913;51.120;6.772;2024-02-26T15:58:53;7.80;99.90
5775;DHT22;2913;51.120;6.772;2024-02-26T16:01:19;7.70;99.90
5775;DHT22;2913;51.120;6.772;2024-02-26T16:03:47;7.80;99.90
5775;DHT22;2913;51.120;6.772;2024-02-26T16:06:38;7.70;99.90
5775;DHT22;2913;51.120;6.772;2024-02-26T16:09:07;7.70;99.90
5775;DHT22;2913;51.120;6.772;2024-02-26T16:11:35;7.60;99.90
5775;DHT22;2913;51.120;6.772;2024-02-26T16:17:16;7.60;99.90
5775;DHT22;2913;51.120;6.772;2024-02-26T16:19:45;7.60;99.90
5775;DHT22;2913;51.120;6.772;2024-02-26T16:22:13;7.60;99.90
5775;DHT22;2913;51.120;6.772;2024-02-26T16:24:39;7.50;99.90
5775;DHT22;2913;51.120;6.772;2024-02-26T16:27:07;7.50;99.90
5775;DHT22;2913;51.120;6.772;2024-02-26T16:29:32;7.50;99.90
5775;DHT22;2913;51.120;6.772;2024-02-26T16:31:58;7.50;99.90
5775;DHT22;2913;51.120;6.772;2024-02-26T16:34:26;7.50;99.90
5775;DHT22;2913;51.120;6.772;2024-02-26T16:36:52;7.50;99.90
5775;DHT22;2913;51.120;6.772;2024-02-26T16:39:19;7.60;99.90
5775;DHT22;2913;51.120;6.772;2024-02-26T16:41:45;7.70;99.90
5775;DHT22;2913;51.120;6.772;2024-02-26T16:44:13;7.60;99.90
5775;DHT22;2913;51.120;6.772;2024-02-26T16:46:38;7.60;99.90
5775;DHT22;2913;51.120;6.772;2024-02-26T16:49:09;7.50;99.90
5775;DHT22;2913;51.120;6.772;2024-02-26T16:51:38;7.50;99.90
5775;DHT22;2913;51.120;6.772;2024-02-26T16:54:06;7.50;99.90
5775;DHT22;2913;51.120;6.772;2024-02-26T16:56:34;7.50;99.90
5775;DHT22;2913;51.120;6.772;2024-02-26T16:58:59;7.50;99.90
5775;DHT22;2913;51.120;6.772;2024-02-26T17:01:25;7.50;99.90
5775;DHT22;2913;51.120;6.772;2024-02-26T17:03:51;7.50;99.90